sensor_id;sensor_type;location;lat;lon;timestamp;temperature;humidity
6102;DHT22;3081;50.584;7.032;2023-05-07T00:00:43;14.00;99.90
6102;DHT22;3081;50.584;7.032;2023-05-07T00:03:10;14.00;99.90
6102;DHT22;3081;50.584;7.032;2023-05-07T00:05:40;14.10;99.90
6102;DHT22;3081;50.584;7.032;2023-05-07T00:08:07;14.10;99.90
6102;DHT22;3081;50.584;7.032;2023-05-07T00:10:34;14.10;99.90
6102;DHT22;3081;50.584;7.032;2023-05-07T00:13:01;14.30;99.90
6102;DHT22;3081;50.584;7.032;2023-05-07T00:15:28;14.30;99.90
6102;DHT22;3081;50.584;7.032;2023-05-07T00:17:55;14.30;99.90
6102;DHT22;3081;50.584;7.032;2023-05-07T00:20:23;14.30;99.90
6102;DHT22;3081;50.584;7.032;2023-05-07T00:22:51;14.20;99.90
6102;DHT22;3081;50.584;7.032;2023-05-07T00:25:19;14.10;99.90
6102;DHT22;3081;50.584;7.032;2023-05-07T00:27:46;14.00;99.90
6102;DHT22;3081;50.584;7.032;2023-05-07T00:30:13;14.00;99.90
6102;DHT22;3081;50.584;7.032;2023-05-07T00:32:40;14.00;99.90
6102;DHT22;3081;50.584;7.032;2023-05-07T00:35:08;13.90;99.90
6102;DHT22;3081;50.584;7.032;2023-05-07T00:37:35;13.90;99.90
6102;DHT22;3081;50.584;7.032;2023-05-07T00:40:04;14.00;99.90
6102;DHT22;3081;50.584;7.032;2023-05-07T00:42:32;14.00;99.90
6102;DHT22;3081;50.584;7.032;2023-05-07T00:44:59;14.00;99.90
6102;DHT22;3081;50.584;7.032;2023-05-07T00:47:26;13.90;99.90
6102;DHT22;3081;50.584;7.032;2023-05-07T00:49:53;13.90;99.90
6102;DHT22;3081;50.584;7.032;2023-05-07T00:52:21;13.90;99.90
6102;DHT22;3081;50.584;7.032;2023-05-07T00:54:50;14.00;99.90
6102;DHT22;3081;50.584;7.032;2023-05-07T00:57:19;13.90;99.90
6102;DHT22;3081;50.584;7.032;2023-05-07T00:59:47;14.00;99.90
6102;DHT22;3081;50.584;7.032;2023-05-07T01:02:14;14.00;99.90
6102;DHT22;3081;50.584;7.032;2023-05-07T01:04:41;14.00;99.90
6102;DHT22;3081;50.584;7.032;2023-05-07T01:07:08;14.00;99.90
6102;DHT22;3081;50.584;7.032;2023-05-07T01:09:36;14.00;99.90
6102;DHT22;3081;50.584;7.032;2023-05-07T01:12:03;14.00;99.90
6102;DHT22;3081;50.584;7.032;2023-05-07T01:14:32;14.00;99.90
6102;DHT22;3081;50.584;7.032;2023-05-07T01:16:59;14.00;99.90
6102;DHT22;3081;50.584;7.032;2023-05-07T01:19:26;14.00;99.90
6102;DHT22;3081;50.584;7.032;2023-05-07T01:22:01;13.90;99.90
6102;DHT22;3081;50.584;7.032;2023-05-07T01:24:31;14.00;99.90
6102;DHT22;3081;50.584;7.032;2023-05-07T01:26:58;13.90;99.90
6102;DHT22;3081;50.584;7.032;2023-05-07T01:29:25;14.00;99.90
6102;DHT22;3081;50.584;7.032;2023-05-07T01:31:52;14.00;99.90
6102;DHT22;3081;50.584;7.032;2023-05-07T01:34:20;14.00;99.90
6102;DHT22;3081;50.584;7.032;2023-05-07T01:36:48;14.10;99.90
6102;DHT22;3081;50.584;7.032;2023-05-07T01:39:16;14.00;99.90
6102;DHT22;3081;50.584;7.032;2023-05-07T01:41:45;14.00;99.90
6102;DHT22;3081;50.584;7.032;2023-05-07T01:44:13;14.00;99.90
6102;DHT22;3081;50.584;7.032;2023-05-07T01:46:41;14.00;99.90
6102;DHT22;3081;50.584;7.032;2023-05-07T01:49:08;14.10;99.90
6102;DHT22;3081;50.584;7.032;2023-05-07T01:51:36;14.10;99.90
6102;DHT22;3081;50.584;7.032;2023-05-07T01:54:03;14.20;99.90
6102;DHT22;3081;50.584;7.032;2023-05-07T01:56:30;14.20;99.90
6102;DHT22;3081;50.584;7.032;2023-05-07T01:58:58;14.20;99.90
6102;DHT22;3081;50.584;7.032;2023-05-07T02:01:25;14.20;99.90
6102;DHT22;3081;50.584;7.032;2023-05-07T02:03:52;14.20;99.90
6102;DHT22;3081;50.584;7.032;2023-05-07T02:06:19;14.20;99.90
6102;DHT22;3081;50.584;7.032;2023-05-07T02:08:47;14.10;99.90
6102;DHT22;3081;50.584;7.032;2023-05-07T02:11:14;14.10;99.90
6102;DHT22;3081;50.584;7.032;2023-05-07T02:13:41;14.10;99.90
6102;DHT22;3081;50.584;7.032;2023-05-07T02:16:09;14.10;99.90
6102;DHT22;3081;50.584;7.032;2023-05-07T02:18:36;14.10;99.90
6102;DHT22;3081;50.584;7.032;2023-05-07T02:21:03;14.10;99.90
6102;DHT22;3081;50.584;7.032;2023-05-07T02:23:30;14.10;99.90
6102;DHT22;3081;50.584;7.032;2023-05-07T02:25:57;14.10;99.90
6102;DHT22;3081;50.584;7.032;2023-05-07T02:28:24;14.10;99.90
6102;DHT22;3081;50.584;7.032;2023-05-07T02:30:51;14.10;99.90
6102;DHT22;3081;50.584;7.032;2023-05-07T02:33:19;14.00;99.90
6102;DHT22;3081;50.584;7.032;2023-05-07T02:35:46;14.00;99.90
6102;DHT22;3081;50.584;7.032;2023-05-07T02:38:13;14.00;99.90
6102;DHT22;3081;50.584;7.032;2023-05-07T02:40:40;14.10;99.90
6102;DHT22;3081;50.584;7.032;2023-05-07T02:43:07;14.10;99.90
6102;DHT22;3081;50.584;7.032;2023-05-07T02:45:34;14.10;99.90
6102;DHT22;3081;50.584;7.032;2023-05-07T02:48:01;14.10;99.90
6102;DHT22;3081;50.584;7.032;2023-05-07T02:50:30;14.10;99.90
6102;DHT22;3081;50.584;7.032;2023-05-07T02:52:58;14.10;99.90
6102;DHT22;3081;50.584;7.032;2023-05-07T02:55:25;14.00;99.90
6102;DHT22;3081;50.584;7.032;2023-05-07T02:57:52;14.00;99.90
6102;DHT22;3081;50.584;7.032;2023-05-07T03:00:19;14.00;99.90
6102;DHT22;3081;50.584;7.032;2023-05-07T03:02:47;14.00;99.90
6102;DHT22;3081;50.584;7.032;2023-05-07T03:05:13;14.00;99.90
6102;DHT22;3081;50.584;7.032;2023-05-07T03:07:42;13.80;99.90
6102;DHT22;3081;50.584;7.032;2023-05-07T03:10:10;13.70;99.90
6102;DHT22;3081;50.584;7.032;2023-05-07T03:12:37;13.80;99.90
6102;DHT22;3081;50.584;7.032;2023-05-07T03:15:05;13.80;99.90
6102;DHT22;3081;50.584;7.032;2023-05-07T03:17:33;13.70;99.90
6102;DHT22;3081;50.584;7.032;2023-05-07T03:20:00;13.70;99.90
6102;DHT22;3081;50.584;7.032;2023-05-07T03:22:27;13.70;99.90
6102;DHT22;3081;50.584;7.032;2023-05-07T03:24:55;13.80;99.90
6102;DHT22;3081;50.584;7.032;2023-05-07T03:27:22;13.80;99.90
6102;DHT22;3081;50.584;7.032;2023-05-07T03:29:49;13.90;99.90
6102;DHT22;3081;50.584;7.032;2023-05-07T03:32:16;13.90;99.90
6102;DHT22;3081;50.584;7.032;2023-05-07T03:34:43;14.00;99.90
6102;DHT22;3081;50.584;7.032;2023-05-07T03:37:10;14.00;99.90
6102;DHT22;3081;50.584;7.032;2023-05-07T03:39:37;13.90;99.90
6102;DHT22;3081;50.584;7.032;2023-05-07T03:42:05;13.80;99.90
6102;DHT22;3081;50.584;7.032;2023-05-07T03:44:32;13.70;99.90
6102;DHT22;3081;50.584;7.032;2023-05-07T03:46:59;13.60;99.90
6102;DHT22;3081;50.584;7.032;2023-05-07T03:49:26;13.60;99.90
6102;DHT22;3081;50.584;7.032;2023-05-07T03:51:52;13.60;99.90
6102;DHT22;3081;50.584;7.032;2023-05-07T03:54:19;13.50;99.90
6102;DHT22;3081;50.584;7.032;2023-05-07T03:56:46;13.50;99.90
6102;DHT22;3081;50.584;7.032;2023-05-07T03:59:15;13.50;99.90
6102;DHT22;3081;50.584;7.032;2023-05-07T04:01:41;13.50;99.90
6102;DHT22;3081;50.584;7.032;2023-05-07T04:04:08;13.50;99.90
6102;DHT22;3081;50.584;7.032;2023-05-07T04:06:35;13.50;99.90
6102;DHT22;3081;50.584;7.032;2023-05-07T04:09:02;13.60;99.90
6102;DHT22;3081;50.584;7.032;2023-05-07T04:11:29;13.60;99.90
6102;DHT22;3081;50.584;7.032;2023-05-07T04:13:56;13.60;99.90
6102;DHT22;3081;50.584;7.032;2023-05-07T04:16:25;13.70;99.90
6102;DHT22;3081;50.584;7.032;2023-05-07T04:18:52;13.60;99.90
6102;DHT22;3081;50.584;7.032;2023-05-07T04:21:20;13.60;99.90
6102;DHT22;3081;50.584;7.032;2023-05-07T04:23:48;13.50;99.90
6102;DHT22;3081;50.584;7.032;2023-05-07T04:26:15;13.50;99.90
6102;DHT22;3081;50.584;7.032;2023-05-07T04:28:42;13.50;99.90
6102;DHT22;3081;50.584;7.032;2023-05-07T04:31:09;13.50;99.90
6102;DHT22;3081;50.584;7.032;2023-05-07T04:33:37;13.50;99.90
6102;DHT22;3081;50.584;7.032;2023-05-07T04:36:05;13.60;99.90
6102;DHT22;3081;50.584;7.032;2023-05-07T04:38:32;13.70;99.90
6102;DHT22;3081;50.584;7.032;2023-05-07T04:41:03;13.80;99.90
6102;DHT22;3081;50.584;7.032;2023-05-07T04:43:30;13.90;99.90
6102;DHT22;3081;50.584;7.032;2023-05-07T04:45:57;14.00;99.90
6102;DHT22;3081;50.584;7.032;2023-05-07T04:48:24;14.00;99.90
6102;DHT22;3081;50.584;7.032;2023-05-07T04:50:53;14.10;99.90
6102;DHT22;3081;50.584;7.032;2023-05-07T04:53:20;14.20;99.90
6102;DHT22;3081;50.584;7.032;2023-05-07T04:55:47;14.10;99.90
6102;DHT22;3081;50.584;7.032;2023-05-07T04:58:14;14.10;99.90
6102;DHT22;3081;50.584;7.032;2023-05-07T05:00:41;14.10;99.90
6102;DHT22;3081;50.584;7.032;2023-05-07T05:03:09;14.10;99.90
6102;DHT22;3081;50.584;7.032;2023-05-07T05:05:36;14.20;99.90
6102;DHT22;3081;50.584;7.032;2023-05-07T05:08:05;14.20;99.90
6102;DHT22;3081;50.584;7.032;2023-05-07T05:10:32;14.30;99.90
6102;DHT22;3081;50.584;7.032;2023-05-07T05:12:59;14.40;99.90
6102;DHT22;3081;50.584;7.032;2023-05-07T05:15:25;14.50;99.90
6102;DHT22;3081;50.584;7.032;2023-05-07T05:17:52;14.60;99.90
6102;DHT22;3081;50.584;7.032;2023-05-07T05:20:19;14.70;99.90
6102;DHT22;3081;50.584;7.032;2023-05-07T05:22:46;14.70;99.90
6102;DHT22;3081;50.584;7.032;2023-05-07T05:25:14;14.80;99.90
6102;DHT22;3081;50.584;7.032;2023-05-07T05:27:41;14.90;99.90
6102;DHT22;3081;50.584;7.032;2023-05-07T05:30:09;15.10;99.90
6102;DHT22;3081;50.584;7.032;2023-05-07T05:32:36;15.20;99.90
6102;DHT22;3081;50.584;7.032;2023-05-07T05:35:03;15.30;99.90
6102;DHT22;3081;50.584;7.032;2023-05-07T05:37:31;15.40;99.90
6102;DHT22;3081;50.584;7.032;2023-05-07T05:39:58;15.50;99.90
6102;DHT22;3081;50.584;7.032;2023-05-07T05:42:26;15.70;99.90
6102;DHT22;3081;50.584;7.032;2023-05-07T05:44:53;15.80;99.90
6102;DHT22;3081;50.584;7.032;2023-05-07T05:47:21;15.80;99.90
6102;DHT22;3081;50.584;7.032;2023-05-07T05:49:48;16.00;99.90
6102;DHT22;3081;50.584;7.032;2023-05-07T05:52:15;16.10;99.90
6102;DHT22;3081;50.584;7.032;2023-05-07T05:54:42;16.40;99.90
6102;DHT22;3081;50.584;7.032;2023-05-07T05:57:09;16.50;99.90
6102;DHT22;3081;50.584;7.032;2023-05-07T05:59:37;16.50;99.90
6102;DHT22;3081;50.584;7.032;2023-05-07T06:02:04;16.60;99.90
6102;DHT22;3081;50.584;7.032;2023-05-07T06:04:31;16.60;99.90
6102;DHT22;3081;50.584;7.032;2023-05-07T06:06:58;16.60;99.90
6102;DHT22;3081;50.584;7.032;2023-05-07T06:09:25;16.60;99.90
6102;DHT22;3081;50.584;7.032;2023-05-07T06:11:51;16.70;99.90
6102;DHT22;3081;50.584;7.032;2023-05-07T06:14:18;16.70;99.90
6102;DHT22;3081;50.584;7.032;2023-05-07T06:16:47;16.70;99.90
6102;DHT22;3081;50.584;7.032;2023-05-07T06:19:13;16.70;99.90
6102;DHT22;3081;50.584;7.032;2023-05-07T06:21:43;16.70;99.90
6102;DHT22;3081;50.584;7.032;2023-05-07T06:24:10;16.70;99.90
6102;DHT22;3081;50.584;7.032;2023-05-07T06:26:37;16.50;99.90
6102;DHT22;3081;50.584;7.032;2023-05-07T06:29:04;16.60;99.90
6102;DHT22;3081;50.584;7.032;2023-05-07T06:31:31;16.50;99.90
6102;DHT22;3081;50.584;7.032;2023-05-07T06:33:59;16.40;99.90
6102;DHT22;3081;50.584;7.032;2023-05-07T06:36:27;16.50;99.90
6102;DHT22;3081;50.584;7.032;2023-05-07T06:38:55;16.60;99.90
6102;DHT22;3081;50.584;7.032;2023-05-07T06:41:21;16.90;99.90
6102;DHT22;3081;50.584;7.032;2023-05-07T06:43:48;17.20;99.90
6102;DHT22;3081;50.584;7.032;2023-05-07T06:46:16;17.20;99.90
6102;DHT22;3081;50.584;7.032;2023-05-07T06:48:43;17.20;99.90
6102;DHT22;3081;50.584;7.032;2023-05-07T06:51:11;17.20;99.90
6102;DHT22;3081;50.584;7.032;2023-05-07T06:53:38;17.20;99.90
6102;DHT22;3081;50.584;7.032;2023-05-07T06:56:05;17.20;99.90
6102;DHT22;3081;50.584;7.032;2023-05-07T06:58:32;17.20;99.90
6102;DHT22;3081;50.584;7.032;2023-05-07T07:00:59;17.30;99.90
6102;DHT22;3081;50.584;7.032;2023-05-07T07:03:26;17.50;99.90
6102;DHT22;3081;50.584;7.032;2023-05-07T07:05:53;17.60;99.90
6102;DHT22;3081;50.584;7.032;2023-05-07T07:08:22;17.80;99.90
6102;DHT22;3081;50.584;7.032;2023-05-07T07:10:49;18.00;99.90
6102;DHT22;3081;50.584;7.032;2023-05-07T07:13:16;18.10;99.90
6102;DHT22;3081;50.584;7.032;2023-05-07T07:15:43;18.30;99.90
6102;DHT22;3081;50.584;7.032;2023-05-07T07:18:10;18.50;99.90
6102;DHT22;3081;50.584;7.032;2023-05-07T07:20:37;18.50;99.90
6102;DHT22;3081;50.584;7.032;2023-05-07T07:23:04;18.50;99.90
6102;DHT22;3081;50.584;7.032;2023-05-07T07:25:32;18.40;99.90
6102;DHT22;3081;50.584;7.032;2023-05-07T07:27:59;18.40;99.90
6102;DHT22;3081;50.584;7.032;2023-05-07T07:30:26;18.60;99.90
6102;DHT22;3081;50.584;7.032;2023-05-07T07:32:53;18.70;99.90
6102;DHT22;3081;50.584;7.032;2023-05-07T07:35:20;18.80;99.90
6102;DHT22;3081;50.584;7.032;2023-05-07T07:37:48;18.90;99.90
6102;DHT22;3081;50.584;7.032;2023-05-07T07:40:16;18.90;99.90
6102;DHT22;3081;50.584;7.032;2023-05-07T07:42:44;18.70;99.90
6102;DHT22;3081;50.584;7.032;2023-05-07T07:45:11;18.80;99.90
6102;DHT22;3081;50.584;7.032;2023-05-07T07:47:38;19.00;99.90
6102;DHT22;3081;50.584;7.032;2023-05-07T07:50:06;19.30;99.90
6102;DHT22;3081;50.584;7.032;2023-05-07T07:52:34;19.60;99.90
6102;DHT22;3081;50.584;7.032;2023-05-07T07:55:01;19.70;99.90
6102;DHT22;3081;50.584;7.032;2023-05-07T07:57:28;19.90;99.90
6102;DHT22;3081;50.584;7.032;2023-05-07T07:59:56;20.20;99.90
6102;DHT22;3081;50.584;7.032;2023-05-07T08:02:23;20.30;99.90
6102;DHT22;3081;50.584;7.032;2023-05-07T08:04:50;20.50;99.90
6102;DHT22;3081;50.584;7.032;2023-05-07T08:07:17;20.70;99.90
6102;DHT22;3081;50.584;7.032;2023-05-07T08:09:46;20.80;99.90
6102;DHT22;3081;50.584;7.032;2023-05-07T08:12:13;20.80;99.90
6102;DHT22;3081;50.584;7.032;2023-05-07T08:14:40;20.80;99.90
6102;DHT22;3081;50.584;7.032;2023-05-07T08:17:09;20.60;99.90
6102;DHT22;3081;50.584;7.032;2023-05-07T08:19:36;20.70;99.90
6102;DHT22;3081;50.584;7.032;2023-05-07T08:22:03;20.80;99.90
6102;DHT22;3081;50.584;7.032;2023-05-07T08:24:31;21.00;99.90
6102;DHT22;3081;50.584;7.032;2023-05-07T08:26:58;21.00;99.90
6102;DHT22;3081;50.584;7.032;2023-05-07T08:29:25;21.10;99.90
6102;DHT22;3081;50.584;7.032;2023-05-07T08:31:51;21.20;99.90
6102;DHT22;3081;50.584;7.032;2023-05-07T08:34:21;21.40;99.90
6102;DHT22;3081;50.584;7.032;2023-05-07T08:36:48;21.50;99.90
6102;DHT22;3081;50.584;7.032;2023-05-07T08:39:15;21.70;99.90
6102;DHT22;3081;50.584;7.032;2023-05-07T08:41:44;21.90;99.90
6102;DHT22;3081;50.584;7.032;2023-05-07T08:44:13;22.10;99.90
6102;DHT22;3081;50.584;7.032;2023-05-07T08:46:41;22.20;99.90
6102;DHT22;3081;50.584;7.032;2023-05-07T08:49:09;22.50;99.90
6102;DHT22;3081;50.584;7.032;2023-05-07T08:51:37;22.50;99.90
6102;DHT22;3081;50.584;7.032;2023-05-07T08:54:04;22.50;99.90
6102;DHT22;3081;50.584;7.032;2023-05-07T08:56:32;22.80;99.90
6102;DHT22;3081;50.584;7.032;2023-05-07T08:58:59;23.00;99.90
6102;DHT22;3081;50.584;7.032;2023-05-07T09:01:26;23.40;99.90
6102;DHT22;3081;50.584;7.032;2023-05-07T09:03:53;23.70;99.90
6102;DHT22;3081;50.584;7.032;2023-05-07T09:06:20;23.60;99.90
6102;DHT22;3081;50.584;7.032;2023-05-07T09:08:53;23.60;99.90
6102;DHT22;3081;50.584;7.032;2023-05-07T09:11:20;23.50;99.90
6102;DHT22;3081;50.584;7.032;2023-05-07T09:13:48;23.30;99.90
6102;DHT22;3081;50.584;7.032;2023-05-07T09:16:15;23.40;99.90
6102;DHT22;3081;50.584;7.032;2023-05-07T09:18:42;23.80;99.90
6102;DHT22;3081;50.584;7.032;2023-05-07T09:21:10;24.50;99.90
6102;DHT22;3081;50.584;7.032;2023-05-07T09:23:37;25.30;99.90
6102;DHT22;3081;50.584;7.032;2023-05-07T09:26:06;26.10;99.90
6102;DHT22;3081;50.584;7.032;2023-05-07T09:28:39;26.70;99.90
6102;DHT22;3081;50.584;7.032;2023-05-07T09:31:07;27.10;99.90
6102;DHT22;3081;50.584;7.032;2023-05-07T09:33:34;27.40;99.90
6102;DHT22;3081;50.584;7.032;2023-05-07T09:36:03;27.80;99.90
6102;DHT22;3081;50.584;7.032;2023-05-07T09:38:31;28.30;99.90
6102;DHT22;3081;50.584;7.032;2023-05-07T09:41:06;28.50;99.90
6102;DHT22;3081;50.584;7.032;2023-05-07T09:43:34;28.70;99.90
6102;DHT22;3081;50.584;7.032;2023-05-07T09:46:07;29.20;99.90
6102;DHT22;3081;50.584;7.032;2023-05-07T09:48:38;29.60;98.40
6102;DHT22;3081;50.584;7.032;2023-05-07T09:51:15;29.90;98.10
6102;DHT22;3081;50.584;7.032;2023-05-07T09:53:45;30.20;95.80
6102;DHT22;3081;50.584;7.032;2023-05-07T09:56:14;30.10;94.20
6102;DHT22;3081;50.584;7.032;2023-05-07T09:58:42;30.30;92.90
6102;DHT22;3081;50.584;7.032;2023-05-07T10:01:10;30.40;92.30
6102;DHT22;3081;50.584;7.032;2023-05-07T10:03:40;30.50;91.80
6102;DHT22;3081;50.584;7.032;2023-05-07T10:06:08;30.70;90.50
6102;DHT22;3081;50.584;7.032;2023-05-07T10:08:36;30.90;88.50
6102;DHT22;3081;50.584;7.032;2023-05-07T10:11:04;31.30;87.00
6102;DHT22;3081;50.584;7.032;2023-05-07T10:13:33;31.60;85.20
6102;DHT22;3081;50.584;7.032;2023-05-07T10:16:01;32.10;84.80
6102;DHT22;3081;50.584;7.032;2023-05-07T10:18:30;32.40;81.40
6102;DHT22;3081;50.584;7.032;2023-05-07T10:21:02;32.70;79.20
6102;DHT22;3081;50.584;7.032;2023-05-07T10:23:32;32.80;78.70
6102;DHT22;3081;50.584;7.032;2023-05-07T10:26:01;32.90;77.20
6102;DHT22;3081;50.584;7.032;2023-05-07T10:28:32;33.30;77.10
6102;DHT22;3081;50.584;7.032;2023-05-07T10:31:10;33.80;73.30
6102;DHT22;3081;50.584;7.032;2023-05-07T10:33:42;34.00;69.90
6102;DHT22;3081;50.584;7.032;2023-05-07T10:36:11;33.70;69.30
6102;DHT22;3081;50.584;7.032;2023-05-07T10:38:38;33.00;68.90
6102;DHT22;3081;50.584;7.032;2023-05-07T10:41:06;32.20;69.00
6102;DHT22;3081;50.584;7.032;2023-05-07T10:43:40;31.50;69.20
6102;DHT22;3081;50.584;7.032;2023-05-07T10:46:15;30.90;71.60
6102;DHT22;3081;50.584;7.032;2023-05-07T10:49:06;30.60;71.20
6102;DHT22;3081;50.584;7.032;2023-05-07T10:51:34;30.10;72.90
6102;DHT22;3081;50.584;7.032;2023-05-07T10:54:21;29.70;74.50
6102;DHT22;3081;50.584;7.032;2023-05-07T10:56:48;29.10;74.90
6102;DHT22;3081;50.584;7.032;2023-05-07T10:59:36;28.60;75.30
6102;DHT22;3081;50.584;7.032;2023-05-07T11:02:10;28.30;76.00
6102;DHT22;3081;50.584;7.032;2023-05-07T11:04:39;28.20;74.60
6102;DHT22;3081;50.584;7.032;2023-05-07T11:07:26;28.30;73.70
6102;DHT22;3081;50.584;7.032;2023-05-07T11:09:58;28.50;74.20
6102;DHT22;3081;50.584;7.032;2023-05-07T11:12:52;28.80;72.60
6102;DHT22;3081;50.584;7.032;2023-05-07T11:15:39;29.10;72.20
6102;DHT22;3081;50.584;7.032;2023-05-07T11:18:09;29.50;70.90
6102;DHT22;3081;50.584;7.032;2023-05-07T11:20:50;29.70;69.70
6102;DHT22;3081;50.584;7.032;2023-05-07T11:23:55;29.80;69.40
6102;DHT22;3081;50.584;7.032;2023-05-07T11:26:23;30.20;68.70
6102;DHT22;3081;50.584;7.032;2023-05-07T11:28:51;30.60;68.30
6102;DHT22;3081;50.584;7.032;2023-05-07T11:31:22;31.00;66.70
6102;DHT22;3081;50.584;7.032;2023-05-07T11:33:52;31.30;65.90
6102;DHT22;3081;50.584;7.032;2023-05-07T11:36:19;31.00;65.70
6102;DHT22;3081;50.584;7.032;2023-05-07T11:38:47;30.30;67.00
6102;DHT22;3081;50.584;7.032;2023-05-07T11:41:15;30.00;67.20
6102;DHT22;3081;50.584;7.032;2023-05-07T11:43:56;29.90;67.50
6102;DHT22;3081;50.584;7.032;2023-05-07T11:46:24;30.00;65.90
6102;DHT22;3081;50.584;7.032;2023-05-07T11:48:52;29.90;66.20
6102;DHT22;3081;50.584;7.032;2023-05-07T11:51:20;30.00;66.80
6102;DHT22;3081;50.584;7.032;2023-05-07T11:53:47;29.90;67.70
6102;DHT22;3081;50.584;7.032;2023-05-07T11:56:17;29.80;66.50
6102;DHT22;3081;50.584;7.032;2023-05-07T11:58:45;29.70;66.80
6102;DHT22;3081;50.584;7.032;2023-05-07T12:01:13;29.90;66.40
6102;DHT22;3081;50.584;7.032;2023-05-07T12:03:41;29.80;65.50
6102;DHT22;3081;50.584;7.032;2023-05-07T12:06:11;29.80;66.10
6102;DHT22;3081;50.584;7.032;2023-05-07T12:08:39;29.90;66.70
6102;DHT22;3081;50.584;7.032;2023-05-07T12:11:11;29.90;67.20
6102;DHT22;3081;50.584;7.032;2023-05-07T12:13:39;29.90;66.40
6102;DHT22;3081;50.584;7.032;2023-05-07T12:16:06;30.00;65.50
6102;DHT22;3081;50.584;7.032;2023-05-07T12:18:35;30.30;64.30
6102;DHT22;3081;50.584;7.032;2023-05-07T12:21:04;30.70;63.80
6102;DHT22;3081;50.584;7.032;2023-05-07T12:23:33;31.10;62.80
6102;DHT22;3081;50.584;7.032;2023-05-07T12:26:00;31.50;61.90
6102;DHT22;3081;50.584;7.032;2023-05-07T12:28:28;31.70;61.40
6102;DHT22;3081;50.584;7.032;2023-05-07T12:30:56;31.30;61.60
6102;DHT22;3081;50.584;7.032;2023-05-07T12:33:25;30.90;62.20
6102;DHT22;3081;50.584;7.032;2023-05-07T12:35:55;31.20;63.20
6102;DHT22;3081;50.584;7.032;2023-05-07T12:38:22;31.30;61.60
6102;DHT22;3081;50.584;7.032;2023-05-07T12:40:54;31.70;60.60
6102;DHT22;3081;50.584;7.032;2023-05-07T12:43:24;32.20;61.10
6102;DHT22;3081;50.584;7.032;2023-05-07T12:45:52;32.40;60.20
6102;DHT22;3081;50.584;7.032;2023-05-07T12:48:21;32.20;58.10
6102;DHT22;3081;50.584;7.032;2023-05-07T12:50:49;31.50;58.40
6102;DHT22;3081;50.584;7.032;2023-05-07T12:53:16;30.90;59.00
6102;DHT22;3081;50.584;7.032;2023-05-07T12:55:44;30.10;59.60
6102;DHT22;3081;50.584;7.032;2023-05-07T12:58:17;29.50;60.90
6102;DHT22;3081;50.584;7.032;2023-05-07T13:00:47;29.10;61.20
6102;DHT22;3081;50.584;7.032;2023-05-07T13:03:21;28.90;61.90
6102;DHT22;3081;50.584;7.032;2023-05-07T13:05:48;28.80;61.90
6102;DHT22;3081;50.584;7.032;2023-05-07T13:08:24;28.70;61.50
6102;DHT22;3081;50.584;7.032;2023-05-07T13:10:51;28.60;61.60
6102;DHT22;3081;50.584;7.032;2023-05-07T13:13:19;28.40;62.40
6102;DHT22;3081;50.584;7.032;2023-05-07T13:15:46;28.30;63.30
6102;DHT22;3081;50.584;7.032;2023-05-07T13:18:13;28.20;63.80
6102;DHT22;3081;50.584;7.032;2023-05-07T13:20:40;28.10;63.80
6102;DHT22;3081;50.584;7.032;2023-05-07T13:23:07;27.80;63.60
6102;DHT22;3081;50.584;7.032;2023-05-07T13:25:34;27.40;64.60
6102;DHT22;3081;50.584;7.032;2023-05-07T13:28:01;27.00;67.30
6102;DHT22;3081;50.584;7.032;2023-05-07T13:30:29;26.40;76.40
6102;DHT22;3081;50.584;7.032;2023-05-07T13:32:56;25.60;81.60
6102;DHT22;3081;50.584;7.032;2023-05-07T13:35:23;24.80;92.00
6102;DHT22;3081;50.584;7.032;2023-05-07T13:37:50;23.70;99.90
6102;DHT22;3081;50.584;7.032;2023-05-07T13:40:17;22.70;99.90
6102;DHT22;3081;50.584;7.032;2023-05-07T13:42:45;21.20;99.90
6102;DHT22;3081;50.584;7.032;2023-05-07T13:45:12;20.00;99.90
6102;DHT22;3081;50.584;7.032;2023-05-07T13:47:41;19.20;99.90
6102;DHT22;3081;50.584;7.032;2023-05-07T13:50:09;18.90;99.90
6102;DHT22;3081;50.584;7.032;2023-05-07T13:52:37;18.50;99.90
6102;DHT22;3081;50.584;7.032;2023-05-07T13:55:06;18.30;99.90
6102;DHT22;3081;50.584;7.032;2023-05-07T13:57:34;18.20;99.90
6102;DHT22;3081;50.584;7.032;2023-05-07T14:00:01;18.20;99.90
6102;DHT22;3081;50.584;7.032;2023-05-07T14:02:28;18.00;99.90
6102;DHT22;3081;50.584;7.032;2023-05-07T14:04:56;17.90;99.90
6102;DHT22;3081;50.584;7.032;2023-05-07T14:07:23;17.80;99.90
6102;DHT22;3081;50.584;7.032;2023-05-07T14:09:50;17.70;99.90
6102;DHT22;3081;50.584;7.032;2023-05-07T14:12:17;17.60;99.90
6102;DHT22;3081;50.584;7.032;2023-05-07T14:14:43;17.60;99.90
6102;DHT22;3081;50.584;7.032;2023-05-07T14:17:12;17.50;99.90
6102;DHT22;3081;50.584;7.032;2023-05-07T14:19:39;17.50;99.90
6102;DHT22;3081;50.584;7.032;2023-05-07T14:22:07;17.50;99.90
6102;DHT22;3081;50.584;7.032;2023-05-07T14:24:34;17.50;99.90
6102;DHT22;3081;50.584;7.032;2023-05-07T14:27:01;17.50;99.90
6102;DHT22;3081;50.584;7.032;2023-05-07T14:29:28;17.50;99.90
6102;DHT22;3081;50.584;7.032;2023-05-07T14:31:55;17.50;99.90
6102;DHT22;3081;50.584;7.032;2023-05-07T14:34:22;17.40;99.90
6102;DHT22;3081;50.584;7.032;2023-05-07T14:36:49;17.40;99.90
6102;DHT22;3081;50.584;7.032;2023-05-07T14:39:17;17.50;99.90
6102;DHT22;3081;50.584;7.032;2023-05-07T14:41:44;17.50;99.90
6102;DHT22;3081;50.584;7.032;2023-05-07T14:44:11;17.40;99.90
6102;DHT22;3081;50.584;7.032;2023-05-07T14:46:37;17.30;99.90
6102;DHT22;3081;50.584;7.032;2023-05-07T14:49:04;17.20;99.90
6102;DHT22;3081;50.584;7.032;2023-05-07T14:51:31;17.10;99.90
6102;DHT22;3081;50.584;7.032;2023-05-07T14:53:58;17.00;99.90
6102;DHT22;3081;50.584;7.032;2023-05-07T14:56:27;17.00;99.90
6102;DHT22;3081;50.584;7.032;2023-05-07T14:58:54;16.90;99.90
6102;DHT22;3081;50.584;7.032;2023-05-07T15:01:21;16.90;99.90
6102;DHT22;3081;50.584;7.032;2023-05-07T15:03:48;16.90;99.90
6102;DHT22;3081;50.584;7.032;2023-05-07T15:06:15;17.00;99.90
6102;DHT22;3081;50.584;7.032;2023-05-07T15:08:41;17.00;99.90
6102;DHT22;3081;50.584;7.032;2023-05-07T15:11:08;16.90;99.90
6102;DHT22;3081;50.584;7.032;2023-05-07T15:13:37;16.90;99.90
6102;DHT22;3081;50.584;7.032;2023-05-07T15:16:04;16.90;99.90
6102;DHT22;3081;50.584;7.032;2023-05-07T15:18:30;17.00;99.90
6102;DHT22;3081;50.584;7.032;2023-05-07T15:20:57;17.10;99.90
6102;DHT22;3081;50.584;7.032;2023-05-07T15:23:24;17.20;99.90
6102;DHT22;3081;50.584;7.032;2023-05-07T15:25:51;17.20;99.90
6102;DHT22;3081;50.584;7.032;2023-05-07T15:28:18;17.30;99.90
6102;DHT22;3081;50.584;7.032;2023-05-07T15:30:47;17.30;99.90
6102;DHT22;3081;50.584;7.032;2023-05-07T15:33:14;17.30;99.90
6102;DHT22;3081;50.584;7.032;2023-05-07T15:35:41;17.20;99.90
6102;DHT22;3081;50.584;7.032;2023-05-07T15:38:08;17.20;99.90
6102;DHT22;3081;50.584;7.032;2023-05-07T15:40:35;17.10;99.90
6102;DHT22;3081;50.584;7.032;2023-05-07T15:43:03;17.20;99.90
6102;DHT22;3081;50.584;7.032;2023-05-07T15:45:30;17.10;99.90
6102;DHT22;3081;50.584;7.032;2023-05-07T15:47:58;17.10;99.90
6102;DHT22;3081;50.584;7.032;2023-05-07T15:50:25;17.20;99.90
6102;DHT22;3081;50.584;7.032;2023-05-07T15:52:54;17.20;99.90
6102;DHT22;3081;50.584;7.032;2023-05-07T15:55:21;17.20;99.90
6102;DHT22;3081;50.584;7.032;2023-05-07T15:57:48;17.10;99.90
6102;DHT22;3081;50.584;7.032;2023-05-07T16:00:15;17.10;99.90
6102;DHT22;3081;50.584;7.032;2023-05-07T16:02:43;16.80;99.90
6102;DHT22;3081;50.584;7.032;2023-05-07T16:05:12;16.70;99.90
6102;DHT22;3081;50.584;7.032;2023-05-07T16:07:39;16.60;99.90